Terminal Aerodrome Forecast
Issued by NWS Binghamton, NY

Home | Current Version | Previous Version | Text Only | Print | Product List | Glossary On
Versions: 1 2 3 4 5 6 7 8 9 10 11 12 13 14 15 16 17 18 19
000
FTUS41 KBGM 010845 AAA
TAFSYR
TAF AMD
KSYR 010845Z 0109/0206 VRB04KT P6SM BKN100
     FM011400 27012G20KT P6SM BKN060
     FM020000 25005KT P6SM FEW250=

USA.gov is the U.S. government's official web portal to all federal, state and local government web resources and services.